Time;durP1;ratioP1;P1;durP2;ratioP2;P2;SDS_P1;SDS_P2;PMS_P1;PMS_P2;Temp;Humidity;BMP_temperature;BMP_pressure;BME280_temperature;BME280_humidity;BME280_pressure;Samples;Min_cycle;Max_cycle;Signal;HPM_P1;HPM_P2
2022/05/13 02:05:28;;;;;;;1.33;1.30;;;;;;;14.28;54.26;94686.50;2620066;47;20153;-88
2022/05/13 02:07:56;;;;;;;1.63;1.53;;;;;;;12.42;55.42;94488.53;2619593;54;20655;-87
2022/05/13 02:10:25;;;;;;;1.57;1.47;;;;;;;12.54;55.80;94544.19;2618843;47;20176;-88
2022/05/13 02:12:55;;;;;;;1.40;1.40;;;;;;;12.02;56.82;94508.19;2619936;39;20576;-87
2022/05/13 02:15:23;;;;;;;2.13;1.90;;;;;;;12.20;56.49;94530.59;2619711;54;20153;-87
2022/05/13 02:17:56;;;;;;;2.57;1.57;;;;;;;13.87;57.06;94782.50;2620061;54;20165;-88
2022/05/13 02:20:25;;;;;;;2.70;1.20;;;;;;;14.84;55.10;94718.91;2621395;47;20248;-88
2022/05/13 02:22:54;;;;;;;4.87;1.87;;;;;;;13.25;53.05;94511.63;2620395;54;20157;-86
2022/05/13 02:25:23;;;;;;;2.10;2.00;;;;;;;14.28;53.59;94655.16;2620442;54;20160;-87
2022/05/13 02:27:52;;;;;;;1.30;1.30;;;;;;;14.08;52.95;94572.91;2620744;47;20160;-88
2022/05/13 02:30:22;;;;;;;1.40;1.30;;;;;;;14.96;50.67;94541.56;2619101;47;20172;-88
2022/05/13 02:32:51;;;;;;;1.20;1.20;;;;;;;16.62;48.78;94697.06;2619000;47;20161;-89
2022/05/13 02:35:23;;;;;;;1.20;1.20;;;;;;;16.97;47.76;94680.94;2620239;54;20168;-89
2022/05/13 02:37:56;;;;;;;1.93;1.83;;;;;;;16.12;47.85;94685.81;2620890;47;20160;-88
2022/05/13 02:43:22;;;;;;;1.73;1.63;;;;;;;13.07;52.65;94512.66;2619241;47;20153;-87
2022/05/13 02:45:51;;;;;;;1.67;1.57;;;;;;;13.45;54.46;94660.66;2619594;47;20176;-87
2022/05/13 02:48:20;;;;;;;2.23;2.13;;;;;;;12.78;57.05;94664.81;2620067;47;20160;-87
2022/05/13 02:50:51;;;;;;;2.13;2.03;;;;;;;12.79;59.68;94808.34;2620980;47;20160;-88
2022/05/13 02:53:21;;;;;;;1.70;1.60;;;;;;;10.64;59.85;94490.28;2620514;46;20182;-88
2022/05/13 02:55:52;;;;;;;1.97;1.73;;;;;;;11.78;59.90;94669.28;2620309;54;20172;-87
2022/05/13 02:58:26;;;;;;;1.20;1.10;;;;;;;11.39;58.92;94562.53;2620542;46;20141;-88
2022/05/13 03:00:55;;;;;;;2.03;1.93;;;;;;;11.40;58.37;94518.59;2621127;54;20149;-88
2022/05/13 03:03:24;;;;;;;2.00;1.90;;;;;;;11.97;57.70;94562.66;2622266;39;20603;-88
2022/05/13 03:05:56;;;;;;;3.40;2.30;;;;;;;12.41;57.15;94574.41;2620620;47;20180;-88
2022/05/13 03:08:25;;;;;;;2.57;2.37;;;;;;;13.19;56.83;94705.59;2620596;46;20145;-87
2022/05/13 03:10:54;;;;;;;2.20;2.10;;;;;;;11.59;59.37;94563.09;2620234;54;20153;-88
2022/05/13 03:13:23;;;;;;;2.00;1.90;;;;;;;10.31;61.38;94473.69;2620475;47;20149;-88
2022/05/13 03:15:53;;;;;;;1.53;1.43;;;;;;;11.42;60.00;94540.63;2620465;54;20171;-87
2022/05/13 03:18:32;;;;;;;2.40;2.20;;;;;;;11.79;58.13;94545.91;2620154;47;20160;-87
2022/05/13 03:21:04;;;;;;;1.17;1.17;;;;;;;12.66;59.78;94734.81;2621030;31;20647;-88
2022/05/13 03:23:33;;;;;;;1.77;1.67;;;;;;;10.68;60.93;94496.03;2619568;54;20149;-87
2022/05/13 03:26:02;;;;;;;1.77;1.50;;;;;;;12.57;60.34;94765.16;2620111;47;20168;-87
2022/05/13 03:28:31;;;;;;;1.60;1.50;;;;;;;12.63;58.94;94708.47;2619687;54;20149;-89
2022/05/13 03:31:00;;;;;;;1.47;1.37;;;;;;;12.75;57.77;94668.25;2620164;54;20156;-88
2022/05/13 03:33:29;;;;;;;1.60;1.50;;;;;;;13.00;57.10;94687.34;2620310;39;20846;-88
2022/05/13 03:36:09;;;;;;;3.20;1.30;;;;;;;12.24;57.07;94586.78;2619630;54;20149;-87
2022/05/13 03:38:41;;;;;;;1.80;1.70;;;;;;;12.16;57.97;94544.00;2620428;39;20560;-89
2022/05/13 03:41:12;;;;;;;1.77;1.67;;;;;;;14.10;54.15;94590.75;2619881;54;20216;-88
2022/05/13 03:43:50;;;;;;;;;;;;;;;;;;;;;
2022/05/13 03:46:23;;;;;;;2.33;2.13;;;;;;;16.13;51.80;94818.66;2620270;54;20192;-88
2022/05/13 03:48:52;;;;;;;1.27;1.27;;;;;;;14.03;52.37;94546.50;2621069;54;20152;-87
2022/05/13 03:51:22;;;;;;;2.23;2.03;;;;;;;14.38;51.94;94635.41;2620026;47;20157;-89
2022/05/13 03:53:55;;;;;;;1.97;1.87;;;;;;;13.92;53.08;94621.06;2620980;47;20160;-89
2022/05/13 03:56:24;;;;;;;2.33;2.23;;;;;;;15.00;53.40;94797.59;2620245;54;20685;-88
2022/05/13 03:58:53;;;;;;;2.67;2.47;;;;;;;13.62;54.00;94630.44;2620345;47;20145;-89
2022/05/13 04:01:22;;;;;;;4.10;2.87;;;;;;;13.90;55.44;94755.53;2620349;47;20164;-88
2022/05/13 04:03:51;;;;;;;3.57;2.57;;;;;;;13.51;56.64;94731.22;2619908;54;20204;-87
2022/05/13 04:09:06;;;;;;;2.83;2.63;;;;;;;14.13;56.56;94776.66;2620608;47;20141;-89
2022/05/13 04:11:37;;;;;;;2.97;2.77;;;;;;;13.73;57.23;94688.28;2619904;47;20195;-89
2022/05/13 04:16:50;;;;;;;6.63;1.70;;;;;;;15.25;56.33;94814.44;2619176;47;20155;-87
2022/05/13 04:19:20;;;;;;;1.97;1.73;;;;;;;14.78;55.58;94738.75;2619783;47;20668;-90
2022/05/13 04:21:50;;;;;;;1.97;1.87;;;;;;;13.69;56.63;94606.38;2621237;54;20145;-89
2022/05/13 04:24:28;;;;;;;2.70;2.50;;;;;;;13.68;55.71;94575.75;2622169;39;20546;-91
2022/05/13 04:27:00;;;;;;;3.13;2.83;;;;;;;15.04;53.46;94715.66;2622986;47;20455;-85
2022/05/13 04:29:29;;;;;;;4.13;3.83;;;;;;;16.07;52.62;94807.88;2622656;54;20396;-89
2022/05/13 04:31:57;;;;;;;2.90;2.70;;;;;;;15.56;52.83;94747.19;2621125;54;20145;-89
2022/05/13 04:34:28;;;;;;;3.10;2.33;;;;;;;16.40;52.27;94822.63;2619527;39;20544;-87
2022/05/13 04:36:57;;;;;;;3.00;2.60;;;;;;;16.17;51.49;94742.28;2618120;46;20187;-88
2022/05/13 04:39:39;;;;;;;;;;;;;;;;;;;;;
2022/05/13 04:45:00;;;;;;;3.00;2.40;;;;;;;17.05;46.38;94633.13;2621544;46;20164;-88
2022/05/13 04:50:13;;;;;;;3.17;2.97;;;;;;;17.77;45.50;94696.59;2618881;47;20228;-88
2022/05/13 04:52:42;;;;;;;5.00;2.80;;;;;;;17.68;44.74;94658.56;2618783;47;20161;-88
2022/05/13 04:55:14;;;;;;;3.20;2.90;;;;;;;17.85;45.49;94720.25;2628354;47;20196;-91
2022/05/13 04:57:43;;;;;;;2.07;1.90;;;;;;;17.52;50.26;94853.88;2628061;47;20176;-90
2022/05/13 05:00:13;;;;;;;2.70;2.50;;;;;;;15.02;50.63;94550.22;2628628;54;20246;-91
2022/05/13 05:02:42;;;;;;;4.07;2.90;;;;;;;15.33;50.73;94599.13;2627943;47;20149;-88
2022/05/13 05:05:18;;;;;;;3.23;3.00;;;;;;;16.04;50.17;94700.72;2618575;54;20690;-88
2022/05/13 05:07:50;;;;;;;3.80;2.47;;;;;;;17.93;48.30;94866.44;2619526;47;20145;-90
2022/05/13 05:10:22;;;;;;;2.43;2.30;;;;;;;17.16;45.88;94647.50;2628412;47;20167;-91
2022/05/13 05:12:55;;;;;;;2.00;1.83;;;;;;;17.11;45.81;94620.97;2627616;47;20153;-89
2022/05/13 05:15:31;;;;;;;2.47;2.27;;;;;;;18.50;44.78;94766.44;2618177;54;20199;-88
2022/05/13 05:18:03;;;;;;;2.90;2.70;;;;;;;18.61;44.30;94729.91;2621367;47;20160;-88
2022/05/13 05:20:32;;;;;;;3.03;2.83;;;;;;;19.47;43.92;94877.97;2612387;47;20220;-90
2022/05/13 05:23:01;;;;;;;7.00;2.70;;;;;;;18.60;44.98;94728.47;2627429;47;20145;-88
2022/05/13 05:28:30;;;;;;;4.57;2.30;;;;;;;18.03;43.60;94642.28;2625674;47;20161;-90
2022/05/13 05:31:00;;;;;;;2.47;2.23;;;;;;;19.32;43.28;94798.94;2624678;47;20737;-88
2022/05/13 05:33:29;;;;;;;2.60;2.40;;;;;;;19.42;43.17;94784.59;2619108;46;20263;-88
2022/05/13 05:35:58;;;;;;;2.40;2.03;;;;;;;18.89;43.36;94691.97;2620736;47;20153;-87
2022/05/13 05:38:37;;;;;;;;;;;;;;;;;;;;;
2022/05/13 05:41:08;;;;;;;2.37;2.17;;;;;;;19.93;42.45;94776.72;2619869;54;20236;-87
2022/05/13 05:46:48;;;;;;;2.67;2.47;;;;;;;19.44;40.04;94618.00;2622624;47;20444;-89
2022/05/13 05:49:17;;;;;;;2.53;2.33;;;;;;;20.17;40.11;94687.53;2625091;54;20156;-91
2022/05/13 05:51:46;;;;;;;2.38;2.17;;;;;;;21.79;39.86;94869.53;2625823;54;20686;-91
2022/05/13 05:57:17;;;;;;;2.28;2.08;;;;;;;20.43;38.55;94622.72;2628050;47;20152;-89
2022/05/13 05:59:48;;;;;;;1.95;1.85;;;;;;;21.99;38.62;94831.91;2624824;47;20722;-83
2022/05/13 06:02:21;;;;;;;3.00;2.38;;;;;;;21.22;38.43;94751.75;2620590;47;20153;-89
2022/05/13 06:05:05;;;;;;;1.85;1.75;;;;;;;20.70;39.69;94706.72;2619170;54;20152;-88
2022/05/13 06:07:33;;;;;;;3.67;2.45;;;;;;;21.05;39.47;94756.16;2618486;47;20141;-88
2022/05/13 06:10:03;;;;;;;3.40;1.83;;;;;;;21.04;39.42;94749.00;2625898;54;20192;-90
2022/05/13 06:12:35;;;;;;;2.00;1.90;;;;;;;21.51;38.67;94749.41;2625915;54;20152;-89
2022/05/13 06:15:36;;;;;;;2.58;2.40;;;;;;;22.04;38.57;94861.41;2619269;39;20539;-89
2022/05/13 06:18:06;;;;;;;2.92;2.70;;;;;;;20.79;38.69;94685.78;2619214;54;20179;-88
2022/05/13 06:23:23;;;;;;;7.22;3.13;;;;;;;21.80;38.30;94753.47;2619015;47;20156;-87
2022/05/13 06:25:52;;;;;;;4.57;2.30;;;;;;;22.56;37.55;94858.03;2618980;47;20152;-86
2022/05/13 06:28:24;;;;;;;2.38;2.03;;;;;;;20.99;37.10;94618.72;2619687;54;20156;-87
2022/05/13 06:30:55;;;;;;;2.08;1.70;;;;;;;22.14;37.56;94743.09;2619745;39;20549;-88
2022/05/13 06:33:34;;;;;;;2.10;1.90;;;;;;;20.57;37.21;94608.97;2620211;54;20175;-89
2022/05/13 06:36:10;;;;;;;2.28;2.15;;;;;;;21.74;38.06;94765.03;2614869;54;20179;-85
2022/05/13 06:42:10;;;;;;;1.98;1.70;;;;;;;21.11;37.44;94607.09;2617501;47;20161;-85
2022/05/13 06:44:43;;;;;;;2.33;1.80;;;;;;;22.61;36.97;94852.94;2616700;54;20153;-87
2022/05/13 06:54:03;;;;;;;4.15;1.63;;;;;;;22.30;36.81;94737.84;2616325;47;20207;-87
2022/05/13 07:00:10;;;;;;;2.25;2.05;;;;;;;23.72;35.59;94839.28;2617192;46;20172;-84
2022/05/13 07:02:39;;;;;;;2.30;2.20;;;;;;;22.84;35.56;94674.41;2617699;47;20164;-82
2022/05/13 07:05:09;;;;;;;2.65;2.47;;;;;;;23.29;34.90;94718.50;2617849;54;20152;-85
2022/05/13 07:10:57;;;;;;;1.98;1.83;;;;;;;23.35;34.65;94729.97;2616904;46;20168;-85
2022/05/13 07:13:26;;;;;;;2.67;2.58;;;;;;;23.47;34.76;94705.22;2616863;54;20252;-85
2022/05/13 07:19:00;;;;;;;2.88;2.63;;;;;;;24.90;33.82;94828.56;2617911;54;20163;-88
2022/05/13 07:21:30;;;;;;;2.20;2.10;;;;;;;24.81;34.12;94836.72;2618476;54;20699;-83
2022/05/13 07:26:39;;;;;;;2.47;2.28;;;;;;;25.12;33.26;94788.28;2617368;47;20191;-83
2022/05/13 07:29:11;;;;;;;2.10;2.00;;;;;;;24.19;32.85;94673.59;2617384;47;20240;-84
2022/05/13 07:34:54;;;;;;;2.58;2.47;;;;;;;25.05;32.22;94760.19;2619459;47;20652;-89
2022/05/13 07:37:23;;;;;;;2.38;2.10;;;;;;;25.54;32.59;94808.41;2617134;54;20152;-88
2022/05/13 07:42:40;;;;;;;2.35;1.95;;;;;;;24.58;33.15;94680.06;2618016;39;20513;-84
2022/05/13 07:45:10;;;;;;;2.40;2.20;;;;;;;24.97;32.61;94775.56;2617347;54;20267;-82
2022/05/13 07:47:39;;;;;;;2.28;2.10;;;;;;;25.53;32.64;94821.47;2617765;47;20164;-86
2022/05/13 07:50:12;;;;;;;3.83;1.77;;;;;;;24.56;32.70;94635.97;2617557;47;20161;-86
2022/05/13 07:52:45;;;;;;;3.38;2.20;;;;;;;25.84;31.95;94807.69;2617068;54;20187;-83
2022/05/13 07:55:15;;;;;;;2.47;1.88;;;;;;;24.46;31.26;94569.59;2621401;54;20161;-88
2022/05/13 07:57:59;;;;;;;2.08;1.92;;;;;;;24.92;32.10;94692.34;2619960;47;20201;-86
2022/05/13 08:00:52;;;;;;;1.98;1.88;;;;;;;25.40;32.61;94731.88;2617887;54;20175;-88
2022/05/13 08:03:20;;;;;;;2.28;2.17;;;;;;;25.52;31.31;94681.56;2617569;54;20145;-83
2022/05/13 08:05:57;;;;;;;2.17;1.98;;;;;;;24.18;33.23;94664.22;2617939;54;20149;-84
2022/05/13 08:08:30;;;;;;;2.33;2.10;;;;;;;25.48;32.61;94774.44;2617784;54;20167;-89
2022/05/13 08:11:02;;;;;;;3.63;2.20;;;;;;;24.92;32.07;94686.56;2619293;54;20176;-88
2022/05/13 08:13:34;;;;;;;2.38;2.17;;;;;;;25.72;32.27;94755.78;2619253;47;20164;-87
2022/05/13 08:16:04;;;;;;;2.20;2.00;;;;;;;25.92;31.89;94758.19;2618666;47;20157;-88
2022/05/13 08:18:33;;;;;;;2.50;2.35;;;;;;;25.31;31.30;94648.72;2619735;47;20157;-83
2022/05/13 08:21:05;;;;;;;2.55;2.35;;;;;;;25.97;31.39;94689.84;2617769;54;20188;-90
2022/05/13 08:24:32;;;;;;;;;;;;;;;;;;;;;
2022/05/13 08:27:05;;;;;;;2.78;2.47;;;;;;;26.11;30.78;94692.38;2628622;54;20212;-89
2022/05/13 08:36:28;;;;;;;2.63;2.45;;;;;;;25.35;30.29;94579.78;2625021;47;20200;-89
2022/05/13 08:38:57;;;;;;;2.53;2.33;;;;;;;25.62;30.41;94587.81;2624597;54;20784;-89
2022/05/13 08:41:36;;;;;;;3.38;2.35;;;;;;;25.14;30.19;94523.81;2624891;54;20164;-89
2022/05/13 08:44:09;;;;;;;2.58;2.38;;;;;;;25.68;30.48;94617.38;2622714;54;20152;-89
2022/05/13 08:46:42;;;;;;;8.35;2.75;;;;;;;25.72;30.80;94631.03;2622887;54;20164;-89
2022/05/13 08:49:25;;;;;;;1.92;1.83;;;;;;;26.95;29.20;94719.84;2624076;54;20155;-89
2022/05/13 08:53:06;;;;;;;3.08;2.05;;;;;;;25.21;30.03;94504.78;2624173;47;20169;-89
2022/05/13 08:55:02;;;;;;;2.22;1.95;;;;;;;26.39;30.33;94618.31;2618130;47;20157;-86
2022/05/13 09:00:28;;;;;;;1.90;1.80;;;;;;;25.65;28.94;94510.88;2624797;54;20223;-87
2022/05/13 09:06:24;;;;;;;3.80;1.77;;;;;;;27.35;27.93;94680.06;2620528;47;20152;-87
2022/05/13 09:08:56;;;;;;;2.33;2.13;;;;;;;26.36;27.64;94558.19;2617363;47;20155;-88
2022/05/13 09:11:55;;;;;;;1.88;1.77;;;;;;;28.19;28.26;94748.66;2618151;47;20248;-88
2022/05/13 09:14:38;;;;;;;3.40;2.15;;;;;;;28.23;27.90;94757.25;2618118;54;20224;-89
2022/05/13 09:17:41;;;;;;;2.10;2.00;;;;;;;28.44;28.02;94747.81;2617601;47;20152;-87
2022/05/13 09:20:19;;;;;;;2.30;2.20;;;;;;;26.69;28.53;94526.66;2619696;54;20164;-86
2022/05/13 09:23:17;;;;;;;2.10;2.00;;;;;;;25.97;28.42;94507.03;2619282;47;20169;-87
2022/05/13 09:26:15;;;;;;;2.28;2.15;;;;;;;26.96;28.50;94621.72;2615308;54;20240;-88
2022/05/13 09:29:26;;;;;;;8.27;2.15;;;;;;;27.08;28.71;94609.72;2620182;54;20181;-89
2022/05/13 09:32:11;;;;;;;2.35;2.25;;;;;;;27.01;28.38;94545.28;2620788;54;20717;-90
2022/05/13 09:34:47;;;;;;;2.50;2.35;;;;;;;27.35;27.97;94583.41;2625480;46;20163;-85
2022/05/13 09:40:14;;;;;;;2.55;2.13;;;;;;;27.49;28.63;94594.56;2619887;47;20172;-89
2022/05/13 09:42:45;;;;;;;2.47;2.20;;;;;;;27.64;28.78;94612.97;2621938;47;20148;-88
2022/05/13 09:49:17;;;;;;;2.72;2.53;;;;;;;27.17;28.18;94547.66;2617038;47;20710;-86
2022/05/13 09:52:10;;;;;;;2.60;2.40;;;;;;;26.64;27.93;94484.00;2618738;47;20149;-87
2022/05/13 09:54:41;;;;;;;2.90;2.05;;;;;;;26.47;28.07;94490.31;2620233;54;20153;-89
2022/05/13 09:57:12;;;;;;;3.33;2.08;;;;;;;27.56;27.82;94639.44;2618822;47;20145;-88
2022/05/13 10:00:02;;;;;;;1.52;1.42;;;;;;;27.74;27.01;94691.22;2617944;39;20526;-89
2022/05/13 10:02:36;;;;;;;1.75;1.65;;;;;;;26.26;26.93;94453.94;2618849;54;20183;-87
2022/05/13 10:05:26;;;;;;;2.47;2.28;;;;;;;27.92;27.04;94593.81;2615813;47;20940;-86
2022/05/13 10:08:14;;;;;;;1.80;1.70;;;;;;;27.61;25.74;94486.53;2621991;47;20145;-89
2022/05/13 10:14:01;;;;;;;2.40;1.48;;;;;;;27.41;25.33;94493.03;2615282;46;20294;-89
2022/05/13 10:16:52;;;;;;;3.65;1.15;;;;;;;27.57;25.11;94516.50;2599798;54;21094;-90
2022/05/13 10:28:29;;;;;;;1.98;1.38;;;;;;;27.84;26.07;94515.53;2608626;54;20207;-86
2022/05/13 10:47:30;;;;;;;1.50;1.40;;;;;;;25.57;28.26;94429.88;2610670;54;20219;-86
2022/05/13 10:54:10;;;;;;;1.52;1.25;;;;;;;27.05;26.36;94390.38;2617073;47;20159;-86
2022/05/13 11:00:32;;;;;;;2.05;1.52;;;;;;;28.12;26.70;94607.66;2617375;47;20969;-87
2022/05/13 11:03:51;;;;;;;1.50;1.48;;;;;;;25.94;26.86;94380.22;2618624;47;20680;-85
2022/05/13 11:06:51;;;;;;;1.10;1.10;;;;;;;25.27;28.28;94341.59;2619329;54;20145;-88
2022/05/13 11:09:38;;;;;;;1.13;1.10;;;;;;;27.58;27.99;94604.47;2618557;47;20148;-87
2022/05/13 11:12:15;;;;;;;1.17;1.17;;;;;;;26.62;26.78;94423.78;2618255;54;20240;-86
2022/05/13 11:15:04;;;;;;;0.95;0.95;;;;;;;27.96;26.17;94561.66;2618119;47;20149;-84
2022/05/13 11:17:42;;;;;;;1.60;1.50;;;;;;;27.20;27.85;94583.16;2618079;47;20168;-85
2022/05/13 11:20:21;;;;;;;2.45;1.63;;;;;;;27.15;27.31;94564.44;2618156;47;20172;-83
2022/05/13 11:23:00;;;;;;;1.60;1.50;;;;;;;27.54;27.24;94540.56;2618020;54;20148;-83
2022/05/13 11:25:57;;;;;;;1.75;1.33;;;;;;;28.08;27.43;94537.91;2618300;47;20148;-83
2022/05/13 11:29:16;;;;;;;1.25;1.25;;;;;;;28.05;26.55;94532.94;2618423;39;20546;-81
2022/05/13 11:37:02;;;;;;;1.10;1.08;;;;;;;26.23;26.47;94308.16;2617288;39;20627;-88
2022/05/13 11:43:42;;;;;;;1.25;1.25;;;;;;;26.53;26.63;94326.75;2616759;47;20754;-87
2022/05/13 11:46:30;;;;;;;1.20;1.20;;;;;;;27.45;26.06;94458.72;2618029;47;20168;-83
2022/05/13 11:49:19;;;;;;;1.52;1.40;;;;;;;26.27;26.06;94310.91;2618216;54;20268;-85
2022/05/13 11:52:32;;;;;;;1.60;1.10;;;;;;;26.75;26.63;94320.19;2617354;54;20157;-88
2022/05/13 11:55:24;;;;;;;1.65;1.17;;;;;;;26.12;26.32;94315.78;2617067;54;20180;-88
2022/05/13 12:18:02;;;;;;;1.33;1.33;;;;;;;25.80;25.25;94257.34;2616026;54;20160;-84
2022/05/13 12:21:10;;;;;;;1.30;1.30;;;;;;;26.94;26.39;94401.63;2616627;39;20583;-86
2022/05/13 12:23:52;;;;;;;1.10;1.10;;;;;;;27.28;25.68;94457.16;2612255;54;20156;-85
2022/05/13 12:27:13;;;;;;;;;;;;;;;;;;;;;
2022/05/13 12:29:58;;;;;;;1.20;1.10;;;;;;;27.48;23.49;94425.13;2616717;39;20597;-80
2022/05/13 12:32:44;;;;;;;1.45;1.25;;;;;;;27.41;23.82;94365.78;2617263;54;20172;-87
2022/05/13 12:38:12;;;;;;;0.80;0.80;;;;;;;27.86;24.71;94361.22;2618526;47;20625;-85
2022/05/13 12:40:59;;;;;;;1.40;1.23;;;;;;;27.03;26.01;94410.78;2614353;54;20160;-83
2022/05/13 12:44:06;;;;;;;1.75;1.20;;;;;;;25.82;25.32;94236.25;2617442;46;20156;-84
2022/05/13 12:49:57;;;;;;;1.15;1.00;;;;;;;26.66;23.84;94298.00;2620868;47;20164;-90
2022/05/13 12:55:05;;;;;;;0.80;0.80;;;;;;;28.06;24.12;94438.31;2614156;54;20230;-82
2022/05/13 12:57:58;;;;;;;1.40;1.30;;;;;;;28.06;24.48;94455.78;2617132;39;20528;-82
2022/05/13 13:00:35;;;;;;;1.30;1.30;;;;;;;27.67;23.87;94345.97;2617462;47;20160;-83
2022/05/13 13:03:30;;;;;;;0.75;0.75;;;;;;;26.51;24.66;94223.00;2617799;47;20145;-86
2022/05/13 13:06:02;;;;;;;0.90;0.90;;;;;;;27.40;24.15;94312.03;2616971;47;20161;-84
2022/05/13 13:08:37;;;;;;;0.90;0.90;;;;;;;27.33;23.40;94339.94;2617116;47;20165;-84
2022/05/13 13:11:11;;;;;;;1.05;0.93;;;;;;;27.10;24.26;94321.88;2617935;47;20171;-85
2022/05/13 13:13:49;;;;;;;1.20;1.17;;;;;;;26.92;24.99;94377.75;2618028;54;20169;-83
2022/05/13 13:16:26;;;;;;;3.35;1.00;;;;;;;27.32;24.30;94381.41;2617453;47;20797;-83
2022/05/13 13:19:12;;;;;;;0.98;0.98;;;;;;;25.89;24.90;94191.03;2614318;54;20167;-85
2022/05/13 13:24:33;;;;;;;0.95;0.95;;;;;;;27.65;23.17;94305.31;2617301;46;20157;-82
2022/05/13 13:27:02;;;;;;;1.00;1.00;;;;;;;27.77;22.61;94320.06;2617012;54;20730;-82
2022/05/13 13:29:37;;;;;;;1.00;1.00;;;;;;;26.84;23.22;94265.41;2617328;47;20152;-86
2022/05/13 13:32:10;;;;;;;1.40;1.30;;;;;;;27.00;24.51;94270.66;2617322;47;20705;-88
2022/05/13 13:34:41;;;;;;;1.05;1.00;;;;;;;27.46;21.88;94346.00;2617655;54;20153;-87
2022/05/13 13:37:34;;;;;;;1.20;1.13;;;;;;;27.23;21.96;94331.56;2617493;54;20152;-85
2022/05/13 13:40:49;;;;;;;1.15;1.10;;;;;;;25.24;21.11;94088.81;2617105;47;20164;-85
2022/05/13 13:43:34;;;;;;;0.90;0.90;;;;;;;26.78;21.68;94263.44;2617489;47;20149;-83
2022/05/13 13:46:11;;;;;;;0.70;0.70;;;;;;;27.77;21.33;94258.25;2617141;47;20367;-83
2022/05/13 13:48:53;;;;;;;0.90;0.90;;;;;;;27.23;20.24;94131.69;2617134;54;20317;-85
2022/05/13 13:51:25;;;;;;;1.10;0.90;;;;;;;28.28;20.14;94233.63;2617197;54;20167;-86
2022/05/13 13:54:05;;;;;;;0.90;0.90;;;;;;;29.14;20.25;94304.19;2625634;47;20173;-89
2022/05/13 13:56:37;;;;;;;0.90;0.90;;;;;;;28.49;19.61;94190.47;2631341;47;20159;-90
2022/05/13 13:59:23;;;;;;;0.85;0.85;;;;;;;28.39;20.28;94222.25;2611155;47;20307;-84
2022/05/13 14:01:58;;;;;;;0.90;0.90;;;;;;;28.01;20.20;94172.19;2617198;47;21239;-85
2022/05/13 14:04:34;;;;;;;1.17;0.70;;;;;;;27.72;19.42;94153.00;2616994;54;20171;-84
2022/05/13 14:07:13;;;;;;;0.77;0.77;;;;;;;28.13;21.12;94183.28;2616904;47;20148;-84
2022/05/13 14:09:57;;;;;;;;;;;;;;;;;;;;;
2022/05/13 14:12:27;;;;;;;1.50;1.50;;;;;;;28.87;19.91;94249.25;2617019;54;20172;-84
2022/05/13 14:14:59;;;;;;;0.90;0.90;;;;;;;28.24;20.47;94243.25;2617348;47;20153;-83
2022/05/13 14:17:31;;;;;;;1.25;1.25;;;;;;;28.58;20.25;94281.13;2618042;31;20867;-84
2022/05/13 14:20:15;;;;;;;1.08;1.08;;;;;;;27.66;19.59;94190.34;2617083;54;20160;-85
2022/05/13 14:23:15;;;;;;;0.80;0.80;;;;;;;27.02;19.23;94113.66;2617120;54;20161;-84
2022/05/13 14:25:54;;;;;;;1.00;0.95;;;;;;;28.45;19.18;94254.00;2617083;47;20153;-84
2022/05/13 14:28:36;;;;;;;;;;;;;;;;;;;;;
2022/05/13 14:44:05;;;;;;;1.35;0.95;;;;;;;27.58;20.27;94235.75;2611465;54;20955;-84
2022/05/13 14:46:37;;;;;;;0.98;0.98;;;;;;;28.06;20.43;94292.75;2617968;47;20148;-84
2022/05/13 14:49:33;;;;;;;0.90;0.90;;;;;;;27.94;19.80;94227.00;2617710;47;20163;-84
2022/05/13 14:52:09;;;;;;;1.10;1.10;;;;;;;26.71;19.93;94093.03;2617622;54;20152;-84
2022/05/13 14:54:43;;;;;;;0.80;0.80;;;;;;;27.17;22.09;94259.84;2617510;54;20168;-86
2022/05/13 14:57:12;;;;;;;1.10;1.10;;;;;;;27.10;21.88;94281.19;2617759;54;20484;-85
2022/05/13 14:59:57;;;;;;;1.67;1.08;;;;;;;28.05;21.50;94323.34;2620912;54;20157;-88
2022/05/13 15:02:45;;;;;;;;;;;;;;;;;;;;;
2022/05/13 15:05:22;;;;;;;3.33;1.10;;;;;;;26.14;22.58;94100.94;2619022;54;20145;-85
2022/05/13 15:07:56;;;;;;;0.98;0.98;;;;;;;26.81;21.40;94116.59;2620822;54;20192;-88
2022/05/13 15:10:27;;;;;;;1.58;0.77;;;;;;;26.76;22.15;94121.16;2619378;47;20248;-88
2022/05/13 15:13:06;;;;;;;;;;;;;;;;;;;;;
2022/05/13 15:18:32;;;;;;;1.52;1.42;;;;;;;28.99;21.53;94277.16;2617975;47;20185;-88
2022/05/13 15:21:03;;;;;;;1.38;1.27;;;;;;;28.38;22.47;94131.25;2620536;54;20240;-87
2022/05/13 15:23:42;;;;;;;;;;;;;;;;;;;;;
2022/05/13 15:26:15;;;;;;;1.60;1.20;;;;;;;29.07;20.82;94221.41;2618280;54;20195;-87
2022/05/13 15:28:56;;;;;;;;;;;;;;;;;;;;;
2022/05/13 15:31:28;;;;;;;1.98;1.00;;;;;;;28.15;22.08;94207.22;2617658;54;20426;-85
2022/05/13 15:33:57;;;;;;;1.15;1.15;;;;;;;27.46;20.68;94151.84;2617101;47;20164;-84
2022/05/13 15:36:28;;;;;;;1.00;1.00;;;;;;;27.00;22.19;94197.28;2617416;39;20568;-85
2022/05/13 15:38:56;;;;;;;1.17;1.17;;;;;;;26.53;23.88;94217.13;2617090;47;20161;-85
2022/05/13 15:41:25;;;;;;;1.83;1.10;;;;;;;27.09;22.65;94274.66;2616658;47;20407;-85
2022/05/13 15:43:56;;;;;;;1.42;1.38;;;;;;;27.23;23.94;94305.41;2616028;54;20211;-86
2022/05/13 15:46:34;;;;;;;4.10;2.45;;;;;;;26.76;23.23;94240.28;2617659;54;20211;-86
2022/05/13 15:54:36;;;;;;;1.00;1.00;;;;;;;27.07;23.10;94192.66;2616100;47;20163;-86
2022/05/13 15:57:12;;;;;;;5.13;3.17;;;;;;;28.01;22.21;94294.44;2616728;47;20169;-86
2022/05/13 15:59:41;;;;;;;1.02;1.02;;;;;;;28.00;23.37;94258.78;2616090;47;20164;-88
2022/05/13 16:02:31;;;;;;;1.00;1.00;;;;;;;28.21;22.36;94279.75;2615909;54;20283;-87
2022/05/13 16:05:00;;;;;;;1.05;1.05;;;;;;;28.56;22.57;94298.72;2616244;54;20276;-81
2022/05/13 16:07:29;;;;;;;1.08;1.00;;;;;;;28.80;22.25;94297.69;2614988;46;20160;-81
2022/05/13 16:09:58;;;;;;;1.10;1.00;;;;;;;28.83;21.90;94289.56;2615824;54;20276;-85
2022/05/13 16:12:35;;;;;;;1.98;1.00;;;;;;;28.38;22.44;94217.91;2615574;54;20211;-86
2022/05/13 16:15:06;;;;;;;1.90;1.25;;;;;;;28.92;22.32;94270.19;2615565;47;20176;-86
2022/05/13 16:17:38;;;;;;;1.25;1.20;;;;;;;29.32;21.62;94294.59;2615538;47;20164;-86
2022/05/13 16:20:10;;;;;;;1.02;1.02;;;;;;;28.48;22.22;94185.44;2615430;47;20175;-81
2022/05/13 16:22:44;;;;;;;1.17;1.17;;;;;;;29.22;22.07;94298.00;2615810;47;20164;-86
2022/05/13 16:25:14;;;;;;;1.35;1.27;;;;;;;28.77;23.09;94301.44;2615703;54;20153;-87
2022/05/13 16:27:49;;;;;;;1.17;1.17;;;;;;;28.26;23.96;94269.38;2616195;39;20587;-87
2022/05/13 16:30:18;;;;;;;0.88;0.88;;;;;;;27.59;23.04;94251.69;2617622;47;20171;-87
2022/05/13 16:32:50;;;;;;;1.10;1.10;;;;;;;27.41;23.76;94243.66;2617536;47;20165;-86
2022/05/13 16:35:19;;;;;;;1.35;1.35;;;;;;;27.24;25.44;94260.31;2616514;54;20162;-87
2022/05/13 16:37:49;;;;;;;1.38;1.38;;;;;;;26.83;26.17;94217.50;2616202;47;20165;-83
2022/05/13 16:40:19;;;;;;;2.40;1.38;;;;;;;27.51;25.95;94281.06;2615749;47;20388;-81
2022/05/13 16:42:48;;;;;;;1.58;1.48;;;;;;;27.32;26.94;94210.56;2615961;54;20153;-82
2022/05/13 16:45:18;;;;;;;1.90;1.55;;;;;;;27.14;27.82;94275.22;2616016;47;20180;-83
2022/05/13 16:47:50;;;;;;;1.60;1.50;;;;;;;26.86;28.54;94207.94;2615924;47;20767;-86
2022/05/13 16:50:29;;;;;;;1.73;1.63;;;;;;;26.39;29.22;94203.09;2616287;54;20165;-86
2022/05/13 16:52:59;;;;;;;1.38;1.33;;;;;;;26.46;28.78;94213.03;2616254;39;20980;-83
2022/05/13 16:55:29;;;;;;;1.95;1.85;;;;;;;26.13;29.18;94158.28;2614603;47;20168;-82
2022/05/13 16:57:58;;;;;;;1.13;1.10;;;;;;;26.42;29.56;94244.41;2615802;54;20175;-86
2022/05/13 17:00:30;;;;;;;2.65;1.50;;;;;;;26.39;29.73;94223.44;2617101;39;20555;-86
2022/05/13 17:03:09;;;;;;;1.52;1.42;;;;;;;25.72;30.24;94204.66;2616308;47;20176;-87
2022/05/13 17:05:39;;;;;;;3.03;2.75;;;;;;;26.21;31.11;94285.00;2616423;47;20305;-85
2022/05/13 17:08:10;;;;;;;1.80;1.70;;;;;;;25.09;32.78;94230.53;2616476;47;20660;-86
2022/05/13 17:16:23;;;;;;;7.88;1.77;;;;;;;24.72;32.90;94204.81;2617705;47;20640;-86
2022/05/13 17:21:48;;;;;;;1.60;1.50;;;;;;;24.76;34.67;94308.94;2618174;47;20148;-88
2022/05/13 17:24:21;;;;;;;5.70;2.22;;;;;;;23.56;35.72;94235.34;2618094;39;20549;-87
2022/05/13 17:26:53;;;;;;;2.20;1.63;;;;;;;23.36;36.61;94314.56;2617348;47;20172;-86
2022/05/13 17:29:22;;;;;;;2.53;1.92;;;;;;;23.71;35.60;94311.59;2617366;54;20160;-87
2022/05/13 17:31:51;;;;;;;3.35;1.63;;;;;;;24.31;35.57;94349.97;2618076;54;20161;-87
2022/05/13 17:34:38;;;;;;;2.40;1.90;;;;;;;23.67;34.09;94187.38;2617449;54;20152;-84